ADDS METAR Data INFO
IDs: Format: Raw Decoded Include TAF

Data at: 2303 UTC 16 Jan 2018

KOKZ 162255Z AUTO 00000KT 10SM CLR 11/00 A3032 RMK AO2 T01141003
KOKZ 162235Z AUTO 00000KT 10SM CLR 12/M01 A3032 RMK AO2 T01221014
KOKZ 162215Z AUTO 20003KT 10SM CLR 13/M02 A3032 RMK AO2 T01261016
KOKZ 162155Z AUTO 20003KT 10SM CLR 13/M02 A3033 RMK AO2 T01301017
KOKZ 162135Z AUTO 22004KT 10SM CLR 13/M02 A3033 RMK AO2 T01311020
KOKZ 162115Z AUTO 21005KT 10SM CLR 13/M02 A3033 RMK AO2 T01331025
KOKZ 162055Z AUTO 00000KT 10SM CLR 14/M02 A3033 RMK AO2 T01351024
KOKZ 162035Z AUTO 22005KT 10SM CLR 14/M02 A3034 RMK AO2 T01351021
KOKZ 162015Z AUTO 24007KT 10SM CLR 14/M03 A3034 RMK AO2 T01381026
KOKZ 161955Z AUTO 22006KT 10SM CLR 14/M03 A3035 RMK AO2 T01361027
KOKZ 161935Z AUTO 18004KT 10SM CLR 14/M03 A3035 RMK AO2 T01391027
KOKZ 161915Z AUTO 22006KT 10SM CLR 13/M03 A3035 RMK AO2 T01341026
KOKZ 161855Z AUTO 22004KT 10SM CLR 13/M03 A3036 RMK AO2 T01261029
KOKZ 161835Z AUTO 00000KT 10SM CLR 13/M03 A3037 RMK AO2 T01251032
KOKZ 161815Z AUTO 21006KT 10SM CLR 12/M03 A3038 RMK AO2 T01241033
KOKZ 161755Z AUTO 20004KT 10SM CLR 12/M04 A3039 RMK AO2 T01161038 10120 21038
KOKZ 161735Z AUTO 16005KT 10SM CLR 12/M04 A3039 RMK AO2 T01181036
KOKZ 161715Z AUTO 16006KT 10SM CLR 11/M04 A3041 RMK AO2 T01081040
KOKZ 161655Z AUTO 19004KT 10SM CLR 10/M04 A3042 RMK AO2 T01011043
KOKZ 161635Z AUTO 21003KT 10SM CLR 10/M05 A3044 RMK AO2 T00951046
KOKZ 161615Z AUTO 19005KT 10SM CLR 09/M05 A3045 RMK AO2 T00901049
KOKZ 161555Z AUTO 16005KT 10SM CLR 08/M06 A3045 RMK AO2 T00801056
KOKZ 161535Z AUTO 15003KT 10SM CLR 08/M04 A3046 RMK AO2 T00791041
KOKZ 161515Z AUTO 14003KT 10SM CLR 07/M04 A3046 RMK AO2 T00651042
KOKZ 161455Z AUTO 14006KT 10SM CLR 06/M04 A3046 RMK AO2 T00551038
KOKZ 161435Z AUTO 14004KT 10SM CLR 04/M04 A3045 RMK AO2 T00421037
KOKZ 161415Z AUTO 14003KT 10SM CLR 03/M03 A3045 RMK AO2 T00271032
KOKZ 161355Z AUTO 00000KT 10SM CLR 01/M04 A3045 RMK AO2 T00131040
KOKZ 161335Z AUTO 00000KT 10SM CLR 00/M03 A3044 RMK AO2 T10031029
KOKZ 161315Z AUTO 00000KT 10SM CLR M02/M04 A3044 RMK AO2 T10251039
KOKZ 161255Z AUTO 00000KT 10SM CLR M03/M04 A3044 RMK AO2 T10311043
KOKZ 161235Z AUTO 00000KT 10SM CLR M04/M04 A3044 RMK AO2 T10361045
KOKZ 161215Z AUTO 00000KT 10SM CLR M03/M04 A3044 RMK AO2 T10301040
KOKZ 161155Z AUTO 00000KT 10SM CLR M03/M04 A3043 RMK AO2 T10331043 11011 21035
KOKZ 161135Z AUTO 00000KT 10SM CLR M03/M04 A3043 RMK AO2 T10311040
KOKZ 161115Z AUTO 00000KT 10SM CLR M03/M04 A3043 RMK AO2 T10321042
KOKZ 161055Z AUTO 00000KT 10SM CLR M03/M04 A3043 RMK AO2 T10311045
KOKZ 161035Z AUTO 00000KT 10SM CLR M03/M04 A3042 RMK AO2 T10271041
KOKZ 161015Z AUTO 00000KT 10SM CLR M02/M04 A3042 RMK AO2 T10251040
KOKZ 160955Z AUTO 00000KT 10SM CLR M03/M04 A3042 RMK AO2 T10271040
KOKZ 160935Z AUTO 00000KT 10SM CLR M02/M03 A3043 RMK AO2 T10251035
KOKZ 160915Z AUTO 00000KT 10SM CLR M02/M04 A3042 RMK AO2 T10251038
KOKZ 160855Z AUTO 00000KT 10SM CLR M02/M03 A3042 RMK AO2 T10251035
KOKZ 160835Z AUTO 00000KT 10SM CLR M03/M04 A3043 RMK AO2 T10281038
KOKZ 160815Z AUTO 00000KT 10SM CLR M02/M04 A3043 RMK AO2 T10231038
KOKZ 160755Z AUTO 00000KT 10SM CLR M02/M04 A3042 RMK AO2 T10221036
KOKZ 160735Z AUTO 00000KT 10SM CLR M02/M03 A3042 RMK AO2 T10171031
KOKZ 160715Z AUTO 00000KT 10SM CLR M02/M03 A3043 RMK AO2 T10221033
KOKZ 160655Z AUTO 00000KT 10SM CLR M02/M03 A3043 RMK AO2 T10161031
KOKZ 160635Z AUTO 00000KT 10SM CLR M01/M04 A3042 RMK AO2 T10151036
KOKZ 160615Z AUTO 00000KT 10SM CLR M01/M03 A3042 RMK AO2 T10151032
KOKZ 160555Z AUTO 00000KT 10SM CLR M01/M03 A3043 RMK AO2 T10151032 10033 21016 400951026
KOKZ 160535Z AUTO 00000KT 10SM CLR M01/M03 A3043 RMK AO2 T10131031
KOKZ 160515Z AUTO 00000KT 10SM CLR M01/M03 A3044 RMK AO2 T10111026
KOKZ 160455Z AUTO 00000KT 10SM CLR M01/M03 A3045 RMK AO2 T10091027
KOKZ 160435Z AUTO 00000KT 10SM CLR M01/M03 A3045 RMK AO2 T10141030
KOKZ 160415Z AUTO 00000KT 10SM CLR 00/M03 A3045 RMK AO2 T10031026
KOKZ 160355Z AUTO 00000KT 10SM CLR M01/M02 A3045 RMK AO2 T10081023
KOKZ 160335Z AUTO 00000KT 10SM CLR 00/M02 A3045 RMK AO2 T10051025
KOKZ 160315Z AUTO 00000KT 10SM CLR 00/M03 A3045 RMK AO2 T00001026
KOKZ 160255Z AUTO 00000KT 10SM CLR 00/M02 A3045 RMK AO2 T10011024
KOKZ 160235Z AUTO 00000KT 10SM CLR 00/M03 A3045 RMK AO2 T00001027
KOKZ 160215Z AUTO 00000KT 10SM CLR 00/M02 A3044 RMK AO2 T00011022
KOKZ 160155Z AUTO 00000KT 10SM CLR 01/M03 A3043 RMK AO2 T00071031
KOKZ 160135Z AUTO 00000KT 10SM CLR 01/M02 A3043 RMK AO2 T00121025
KOKZ 160115Z AUTO 00000KT 10SM CLR 02/M02 A3043 RMK AO2 T00161022
KOKZ 160055Z AUTO 00000KT 10SM CLR 02/M02 A3043 RMK AO2 T00221017
KOKZ 160035Z AUTO 00000KT 10SM CLR 01/M01 A3042 RMK AO2 T00141014
KOKZ 160015Z AUTO 00000KT 10SM CLR 02/M01 A3042 RMK AO2 T00221010
KOKZ 152355Z AUTO 00000KT 10SM CLR 03/M02 A3041 RMK AO2 T00341016 10095 20034
KOKZ 152335Z AUTO 00000KT 10SM CLR 04/M01 A3041 RMK AO2 T00441014
KOKZ 152315Z AUTO 00000KT 10SM CLR 06/M03 A3041 RMK AO2 T00571030
KOKZ 152255Z AUTO 00000KT 10SM CLR 07/M03 A3041 RMK AO2 T00711031
KOKZ 152235Z AUTO 00000KT 10SM CLR 09/M06 A3041 RMK AO2 T00901063
KOKZ 152215Z AUTO 00000KT 10SM CLR 09/M06 A3041 RMK AO2 T00911064
KOKZ 152155Z AUTO 00000KT 10SM CLR 09/M06 A3041 RMK AO2 T00941061
KOKZ 152135Z AUTO 00000KT 10SM CLR 10/M06 A3041 RMK AO2 T00951064
KOKZ 152115Z AUTO 00000KT 10SM CLR 10/M07 A3041 RMK AO2 T00951066
KOKZ 152055Z AUTO 00000KT 10SM CLR 09/M07 A3041 RMK AO2 T00921068
KOKZ 152035Z AUTO 00000KT 10SM CLR 09/M07 A3041 RMK AO2 T00891070
KOKZ 152015Z AUTO 30003KT 10SM CLR 09/M07 A3041 RMK AO2 T00901068
KOKZ 151955Z AUTO 00000KT 10SM CLR 09/M07 A3041 RMK AO2 T00851075
KOKZ 151935Z AUTO 00000KT 10SM CLR 09/M08 A3041 RMK AO2 T00851077
KOKZ 151915Z AUTO 00000KT 10SM CLR 08/M08 A3042 RMK AO2 T00821080
KOKZ 151855Z AUTO 00000KT 10SM CLR 08/M08 A3042 RMK AO2 T00761081
KOKZ 151835Z AUTO 00000KT 10SM CLR 07/M08 A3044 RMK AO2 T00711076
KOKZ 151815Z AUTO 09004KT 10SM CLR 07/M08 A3046 RMK AO2 T00691079
KOKZ 151755Z AUTO 10003KT 10SM CLR 07/M08 A3047 RMK AO2 T00671079 10067 21025
KOKZ 151735Z AUTO 04004KT 10SM CLR 06/M08 A3049 RMK AO2 T00601079
KOKZ 151715Z AUTO 00000KT 10SM CLR 06/M08 A3049 RMK AO2 T00591076
KOKZ 151655Z AUTO 32004KT 10SM CLR 05/M08 A3051 RMK AO2 T00481080
KOKZ 151635Z AUTO 00000KT 10SM CLR 04/M08 A3051 RMK AO2 T00431083
KOKZ 151615Z AUTO 04004KT 10SM CLR 04/M08 A3052 RMK AO2 T00381084
KOKZ 151555Z AUTO 05004KT 10SM CLR 03/M08 A3052 RMK AO2 T00301083
KOKZ 151535Z AUTO 04004KT 10SM CLR 02/M08 A3053 RMK AO2 T00231080
KOKZ 151515Z AUTO 07003KT 10SM CLR 02/M08 A3054 RMK AO2 T00151076
KOKZ 151455Z AUTO 05004KT 10SM CLR 01/M08 A3054 RMK AO2 T00101081
KOKZ 151435Z AUTO 05004KT 10SM CLR 00/M08 A3054 RMK AO2 T00011079
KOKZ 151415Z AUTO 05005KT 10SM CLR 00/M08 A3052 RMK AO2 T00001077
KOKZ 151355Z AUTO 07005KT 10SM CLR M01/M07 A3052 RMK AO2 T10061072
KOKZ 151335Z AUTO 05003KT 10SM CLR M01/M07 A3052 RMK AO2 T10151069
KOKZ 151315Z AUTO 07003KT 10SM CLR M02/M07 A3052 RMK AO2 T10201070
KOKZ 151255Z AUTO 05003KT 10SM CLR M02/M07 A3051 RMK AO2 T10231069
KOKZ 151235Z AUTO 00000KT 10SM CLR M02/M07 A3050 RMK AO2 T10231068
KOKZ 151215Z AUTO 00000KT 10SM CLR M02/M06 A3049 RMK AO2 T10241065
KOKZ 151155Z AUTO 00000KT 10SM CLR M02/M06 A3048 RMK AO2 T10221065 10000 21026
KOKZ 151135Z AUTO 03003KT 10SM CLR M02/M06 A3048 RMK AO2 T10171065
KOKZ 151115Z AUTO 07003KT 10SM CLR M01/M06 A3047 RMK AO2 T10151063